Time;durP1;ratioP1;P1;durP2;ratioP2;P2;SDS_P1;SDS_P2;PMS_P1;PMS_P2;Temp;Humidity;BMP_temperature;BMP_pressure;BME280_temperature;BME280_humidity;BME280_pressure;Samples;Min_cycle;Max_cycle;Signal;HPM_P1;HPM_P2
2023/07/10 00:00:55;;;;;;;7.57;3.33;;;;;;;26.03;38.42;96924.81;6278048;22;20046;-84
2023/07/10 00:03:23;;;;;;;8.88;3.95;;;;;;;25.98;38.46;96916.81;6278664;22;20369;-84
2023/07/10 00:05:50;;;;;;;7.03;4.15;;;;;;;25.97;38.40;96912.53;6279430;22;20020;-83
2023/07/10 00:08:18;;;;;;;3.88;3.10;;;;;;;25.95;38.49;96914.69;6278632;22;20024;-83
2023/07/10 00:10:46;;;;;;;6.40;3.28;;;;;;;25.92;38.62;96917.91;6278442;22;20040;-83
2023/07/10 00:13:14;;;;;;;7.57;3.17;;;;;;;25.92;38.83;96917.91;6279476;22;20050;-84
2023/07/10 00:15:42;;;;;;;6.00;3.40;;;;;;;25.89;38.71;96920.03;6278863;22;20487;-83
2023/07/10 00:18:15;;;;;;;6.00;3.00;;;;;;;25.85;38.83;96918.16;6278804;22;20083;-83
2023/07/10 00:20:45;;;;;;;5.53;3.25;;;;;;;25.81;38.94;96917.09;6278619;22;20016;-83
2023/07/10 00:23:12;;;;;;;5.20;3.63;;;;;;;25.72;39.14;96918.75;6278724;22;20015;-83
2023/07/10 00:25:40;;;;;;;7.00;3.45;;;;;;;25.61;39.20;96908.06;6279367;22;20070;-83
2023/07/10 00:28:14;;;;;;;4.82;3.35;;;;;;;25.53;39.55;96910.50;6278283;22;20046;-83
2023/07/10 00:30:42;;;;;;;5.40;3.72;;;;;;;25.43;39.42;96912.13;6277922;22;20019;-83
2023/07/10 00:33:11;;;;;;;6.78;3.22;;;;;;;25.37;39.77;96899.84;6277525;22;20043;-83
2023/07/10 00:35:40;;;;;;;4.20;3.25;;;;;;;25.32;39.71;96904.38;6276766;22;20023;-83
2023/07/10 00:38:18;;;;;;;4.93;3.25;;;;;;;25.27;39.99;96902.50;6276468;22;20023;-84
2023/07/10 00:40:47;;;;;;;4.65;3.58;;;;;;;25.23;39.81;96896.09;6275308;22;20011;-83
2023/07/10 00:43:26;;;;;;;4.25;3.03;;;;;;;25.21;39.71;96898.22;6275101;22;20066;-83
2023/07/10 00:45:54;;;;;;;6.22;3.30;;;;;;;25.16;39.90;96898.22;6275824;22;20071;-83
2023/07/10 00:48:36;;;;;;;7.82;2.97;;;;;;;25.12;40.14;96894.47;6275176;22;20094;-83
2023/07/10 00:51:13;;;;;;;5.68;3.65;;;;;;;25.08;40.19;96902.25;6275476;22;20456;-83
2023/07/10 00:53:42;;;;;;;6.10;3.55;;;;;;;25.03;39.88;96892.34;6275496;22;20031;-83
2023/07/10 00:56:15;;;;;;;6.18;3.22;;;;;;;24.98;40.24;96889.69;6281102;22;20024;-83
2023/07/10 00:58:45;;;;;;;4.55;3.28;;;;;;;24.94;40.51;96885.16;6277763;22;20022;-83
2023/07/10 01:01:15;;;;;;;5.38;3.50;;;;;;;24.91;40.58;96889.16;6276026;22;20043;-84
2023/07/10 01:03:44;;;;;;;7.93;3.47;;;;;;;24.88;40.43;96885.16;6276417;22;20361;-83
2023/07/10 01:06:15;;;;;;;6.40;3.38;;;;;;;24.90;40.37;96886.75;6276840;22;20058;-83
2023/07/10 01:08:45;;;;;;;5.45;3.40;;;;;;;24.89;40.33;96880.63;6288411;22;20011;-84
2023/07/10 01:11:13;;;;;;;9.68;3.65;;;;;;;24.87;40.47;96880.88;6286324;22;20488;-84
2023/07/10 01:13:46;;;;;;;5.32;3.33;;;;;;;24.85;40.76;96885.66;6277330;22;20511;-83
2023/07/10 01:16:14;;;;;;;6.28;3.40;;;;;;;24.82;40.75;96885.41;6277717;22;20019;-84
2023/07/10 01:18:42;;;;;;;6.15;4.00;;;;;;;24.78;40.92;96884.34;6277354;22;20070;-84
2023/07/10 01:21:14;;;;;;;5.10;3.58;;;;;;;24.71;40.90;96889.13;6278438;22;20388;-84
2023/07/10 01:23:42;;;;;;;7.22;3.78;;;;;;;24.67;41.09;96897.66;6278717;22;20074;-83
2023/07/10 01:26:09;;;;;;;8.20;3.65;;;;;;;24.65;41.21;96904.34;6279356;22;20028;-83
2023/07/10 01:28:37;;;;;;;7.85;3.92;;;;;;;24.63;41.33;96909.94;6280104;22;20353;-83
2023/07/10 01:31:10;;;;;;;6.60;3.58;;;;;;;24.66;41.17;96913.94;6280466;22;20016;-85
2023/07/10 01:33:41;;;;;;;6.03;3.80;;;;;;;24.67;41.32;96911.00;6279109;22;20022;-84
2023/07/10 01:36:11;;;;;;;6.00;3.75;;;;;;;24.71;41.18;96915.78;6279025;22;20020;-84
2023/07/10 01:38:46;;;;;;;4.60;3.53;;;;;;;24.73;41.28;96919.00;6278604;22;20091;-84
2023/07/10 01:41:24;;;;;;;6.85;3.47;;;;;;;24.73;41.35;96925.16;6278688;22;20075;-83
2023/07/10 01:43:52;;;;;;;5.43;3.80;;;;;;;24.77;41.23;96928.09;6277851;22;20027;-83
2023/07/10 01:46:23;;;;;;;7.78;3.35;;;;;;;24.79;41.10;96939.28;6277898;22;20095;-83
2023/07/10 01:48:53;;;;;;;9.43;4.20;;;;;;;24.77;40.94;96950.22;6276711;22;20078;-83
2023/07/10 01:51:22;;;;;;;6.20;3.30;;;;;;;24.75;41.11;96948.88;6277258;22;20020;-83
2023/07/10 01:53:51;;;;;;;7.40;3.50;;;;;;;24.71;41.14;96939.81;6277461;22;20070;-83
2023/07/10 01:56:22;;;;;;;6.70;3.80;;;;;;;24.69;41.01;96937.41;6280755;22;20069;-84
2023/07/10 01:58:50;;;;;;;6.30;3.30;;;;;;;24.64;41.13;96938.22;6281094;22;20016;-83
2023/07/10 02:01:17;;;;;;;7.07;3.85;;;;;;;24.57;41.42;96926.97;6282011;22;20326;-83
2023/07/10 02:03:45;;;;;;;7.97;3.85;;;;;;;24.55;41.81;96930.97;6284609;22;20019;-84
2023/07/10 02:06:13;;;;;;;5.53;3.60;;;;;;;24.54;41.79;96922.19;6283426;22;20344;-84
2023/07/10 02:08:41;;;;;;;7.03;3.83;;;;;;;24.56;42.05;96935.25;6282165;22;20338;-85
2023/07/10 02:11:12;;;;;;;6.88;3.70;;;;;;;24.56;41.78;96935.25;6284163;22;20413;-82
2023/07/10 02:13:40;;;;;;;7.33;3.60;;;;;;;24.56;41.92;96946.72;6282895;22;20062;-83
2023/07/10 02:16:11;;;;;;;4.95;3.97;;;;;;;24.57;41.84;96940.31;6283398;22;20107;-84
2023/07/10 02:18:39;;;;;;;4.57;3.33;;;;;;;24.58;41.92;96947.25;6285736;22;20020;-84
2023/07/10 02:21:07;;;;;;;5.50;3.50;;;;;;;24.57;41.98;96940.31;6288591;22;20061;-83
2023/07/10 02:23:35;;;;;;;6.93;2.70;;;;;;;24.55;41.87;96952.31;6283798;22;20349;-84
2023/07/10 02:26:04;;;;;;;6.80;3.45;;;;;;;24.54;42.07;96940.06;6283582;22;20012;-84
2023/07/10 02:28:33;;;;;;;5.45;4.00;;;;;;;24.51;41.65;96941.38;6282560;22;20020;-83
2023/07/10 02:31:04;;;;;;;3.97;3.35;;;;;;;24.52;41.69;96926.97;6283526;22;20394;-83
2023/07/10 02:33:32;;;;;;;5.15;3.60;;;;;;;24.53;41.99;96927.78;6281977;22;20085;-85
2023/07/10 02:36:01;;;;;;;8.18;4.20;;;;;;;24.49;41.88;96924.84;6284018;22;20020;-84
2023/07/10 02:38:29;;;;;;;5.40;3.63;;;;;;;24.47;42.32;96929.59;6288814;22;20023;-84
2023/07/10 02:40:59;;;;;;;6.82;3.45;;;;;;;24.43;42.31;96916.00;6288153;22;20318;-85
2023/07/10 02:43:27;;;;;;;5.93;3.90;;;;;;;24.41;42.19;96922.66;6288003;22;20069;-84
2023/07/10 02:45:56;;;;;;;6.85;3.45;;;;;;;24.39;42.16;96908.78;6293783;22;20345;-83
2023/07/10 02:48:24;;;;;;;5.90;3.45;;;;;;;24.35;42.63;96902.38;6293548;22;20019;-84
2023/07/10 02:50:51;;;;;;;6.72;3.67;;;;;;;24.30;42.43;96894.38;6298809;22;20046;-85
2023/07/10 02:53:19;;;;;;;7.47;4.00;;;;;;;24.24;42.73;96899.66;6299772;22;20066;-85
2023/07/10 02:55:47;;;;;;;5.10;3.90;;;;;;;24.18;42.91;96897.25;6303253;22;20031;-85
2023/07/10 02:58:14;;;;;;;5.28;3.40;;;;;;;24.11;43.20;96892.16;6303817;22;20016;-83
2023/07/10 03:00:42;;;;;;;5.43;3.55;;;;;;;24.07;42.97;96885.75;6303283;22;20006;-84
2023/07/10 03:03:11;;;;;;;6.07;3.90;;;;;;;24.05;43.35;96879.88;6304282;22;20027;-84
2023/07/10 03:05:38;;;;;;;5.13;3.35;;;;;;;24.01;43.59;96881.47;6304045;22;20023;-85
2023/07/10 03:08:06;;;;;;;4.65;3.33;;;;;;;23.94;43.90;96886.22;6304542;22;20027;-84
2023/07/10 03:10:34;;;;;;;6.43;3.40;;;;;;;23.90;43.94;96882.47;6304702;22;20050;-84
2023/07/10 03:13:01;;;;;;;6.30;3.72;;;;;;;23.88;44.07;96893.41;6305059;22;20015;-84
2023/07/10 03:15:29;;;;;;;6.07;3.75;;;;;;;23.86;44.23;96895.53;6305050;22;20028;-85
2023/07/10 03:17:57;;;;;;;5.32;3.88;;;;;;;23.83;44.38;96910.19;6304916;22;20023;-83
2023/07/10 03:20:26;;;;;;;6.03;3.90;;;;;;;23.80;44.26;96923.22;6304574;22;20027;-84
2023/07/10 03:22:53;;;;;;;6.35;3.92;;;;;;;23.74;44.46;96917.00;6305010;22;20012;-83
2023/07/10 03:25:21;;;;;;;7.05;3.38;;;;;;;23.72;44.93;96921.00;6305031;22;20011;-85
2023/07/10 03:27:49;;;;;;;7.38;4.05;;;;;;;23.70;44.81;96923.09;6304830;22;20003;-85
2023/07/10 03:30:20;;;;;;;9.10;3.77;;;;;;;23.64;44.84;96927.63;6304805;22;20046;-83
2023/07/10 03:32:48;;;;;;;7.63;4.10;;;;;;;23.60;45.15;96931.84;6304837;22;20023;-82
2023/07/10 03:35:16;;;;;;;5.32;4.30;;;;;;;23.52;45.41;96938.44;6304837;22;20023;-83
2023/07/10 03:37:44;;;;;;;8.65;3.67;;;;;;;23.51;45.30;96936.06;6304679;22;20027;-84
2023/07/10 03:40:13;;;;;;;4.10;3.50;;;;;;;23.52;45.27;96954.41;6304631;22;20011;-83
2023/07/10 03:42:40;;;;;;;6.07;3.53;;;;;;;23.51;45.49;96952.84;6304866;22;20012;-83
2023/07/10 03:45:09;;;;;;;5.13;3.72;;;;;;;23.49;45.25;96954.94;6304838;22;20016;-82
2023/07/10 03:47:37;;;;;;;6.25;4.28;;;;;;;23.46;45.35;96955.44;6304478;22;19999;-83
2023/07/10 03:50:06;;;;;;;8.38;3.83;;;;;;;23.40;45.72;96964.47;6304382;22;20003;-83
2023/07/10 03:52:34;;;;;;;7.45;3.92;;;;;;;23.41;45.68;96974.84;6304565;22;20038;-83
2023/07/10 03:55:03;;;;;;;4.82;3.60;;;;;;;23.49;45.43;96986.91;6304727;22;20012;-83
2023/07/10 03:57:31;;;;;;;7.97;4.70;;;;;;;23.54;45.61;96988.78;6304523;22;20007;-82
2023/07/10 03:59:59;;;;;;;6.18;4.22;;;;;;;23.55;45.55;96985.06;6304255;22;20007;-82
2023/07/10 04:02:26;;;;;;;7.72;3.97;;;;;;;23.52;45.62;96970.41;6304600;22;19999;-82
2023/07/10 04:04:54;;;;;;;5.57;3.55;;;;;;;23.48;45.73;96969.31;6304659;22;20008;-83
2023/07/10 04:07:22;;;;;;;5.53;3.72;;;;;;;23.42;46.21;96968.47;6304352;22;20008;-82
2023/07/10 04:09:52;;;;;;;6.13;3.95;;;;;;;23.38;46.16;96975.38;6304200;22;20003;-82
2023/07/10 04:12:21;;;;;;;7.05;4.40;;;;;;;23.35;46.09;96975.88;6304353;22;20007;-81
2023/07/10 04:14:48;;;;;;;7.15;4.05;;;;;;;23.35;46.54;96996.34;6304408;22;20019;-81
2023/07/10 04:17:16;;;;;;;7.78;4.13;;;;;;;23.35;46.54;97002.50;6304015;22;20015;-82
2023/07/10 04:19:44;;;;;;;4.97;3.45;;;;;;;23.39;46.69;97003.56;6304201;22;20015;-82
2023/07/10 04:22:12;;;;;;;8.13;4.30;;;;;;;23.49;46.58;97008.19;6304504;22;20012;-83
2023/07/10 04:24:39;;;;;;;5.20;3.85;;;;;;;23.55;46.13;97006.34;6304246;22;20027;-80
2023/07/10 04:27:08;;;;;;;7.97;4.55;;;;;;;23.50;46.71;97006.34;6304395;22;20007;-84
2023/07/10 04:29:37;;;;;;;6.20;4.40;;;;;;;23.45;46.57;97005.22;6304193;22;20008;-84
2023/07/10 04:32:35;;;;;;;7.43;4.07;;;;;;;23.41;46.64;97006.00;6304286;22;20004;-84
2023/07/10 04:35:03;;;;;;;7.72;4.47;;;;;;;23.37;46.87;97023.53;6303421;22;20019;-81
2023/07/10 04:37:31;;;;;;;6.78;4.40;;;;;;;23.35;47.22;97026.47;6301742;22;20030;-79
2023/07/10 04:39:58;;;;;;;7.55;4.53;;;;;;;23.36;46.94;97014.75;6297280;22;20027;-79
2023/07/10 04:42:26;;;;;;;8.18;4.80;;;;;;;23.39;46.86;97008.09;6297025;22;20042;-78
2023/07/10 04:44:55;;;;;;;7.85;4.47;;;;;;;23.41;46.90;97006.78;6300490;22;20008;-79
2023/07/10 04:47:23;;;;;;;7.40;4.72;;;;;;;23.47;47.41;97014.84;6295183;22;20015;-79
2023/07/10 04:49:50;;;;;;;13.30;5.47;;;;;;;23.49;47.15;97012.72;6300113;22;20031;-81
2023/07/10 04:52:18;;;;;;;8.27;4.28;;;;;;;23.50;47.04;97019.66;6296366;22;20046;-79
2023/07/10 04:54:46;;;;;;;15.18;4.97;;;;;;;23.53;47.44;97035.13;6282989;22;20373;-79
2023/07/10 04:57:13;;;;;;;13.00;4.63;;;;;;;23.57;47.40;97041.53;6279563;22;20020;-76
2023/07/10 04:59:41;;;;;;;9.60;4.15;;;;;;;23.59;47.19;97040.25;6275283;22;20099;-77
2023/07/10 05:02:10;;;;;;;12.00;5.13;;;;;;;23.62;47.49;97044.25;6275403;22;20408;-77
2023/07/10 05:04:38;;;;;;;14.23;5.63;;;;;;;23.67;47.31;97048.81;6276012;22;20453;-78
2023/07/10 05:07:05;;;;;;;16.95;7.85;;;;;;;23.70;47.73;97073.06;6275614;22;20023;-77
2023/07/10 05:09:33;;;;;;;21.77;6.63;;;;;;;23.74;47.30;97086.69;6275064;22;20062;-78
2023/07/10 05:12:00;;;;;;;14.32;6.32;;;;;;;23.79;47.83;97095.56;6275824;22;20019;-77
2023/07/10 05:14:28;;;;;;;10.70;4.78;;;;;;;23.84;47.37;97087.59;6276196;22;20019;-76
2023/07/10 05:16:56;;;;;;;8.25;4.57;;;;;;;23.91;47.71;97075.94;6275152;22;20023;-76
2023/07/10 05:19:26;;;;;;;8.27;4.55;;;;;;;23.95;47.91;97087.69;6275177;22;20362;-76
2023/07/10 05:21:54;;;;;;;6.68;3.85;;;;;;;24.00;47.69;97093.84;6275289;22;20556;-77
2023/07/10 05:24:22;;;;;;;7.63;4.63;;;;;;;24.10;48.05;97084.31;6275159;22;20098;-76
2023/07/10 05:26:49;;;;;;;6.10;4.43;;;;;;;24.15;48.50;97090.47;6275358;22;20444;-76
2023/07/10 05:29:17;;;;;;;10.80;4.80;;;;;;;24.19;48.72;97090.78;6276020;22;20054;-76
2023/07/10 05:31:44;;;;;;;6.78;4.55;;;;;;;24.22;48.36;97091.03;6276787;22;20027;-76
2023/07/10 05:34:12;;;;;;;6.78;4.78;;;;;;;24.29;48.80;97100.69;6277106;22;20058;-77
2023/07/10 05:36:41;;;;;;;9.02;4.55;;;;;;;24.32;48.99;97089.53;6276927;22;20548;-77
2023/07/10 05:39:08;;;;;;;8.63;4.40;;;;;;;24.34;48.81;97082.06;6276606;22;20539;-77
2023/07/10 05:41:37;;;;;;;8.25;4.13;;;;;;;24.38;49.05;97093.81;6277544;22;20023;-77
2023/07/10 05:44:06;;;;;;;8.13;4.82;;;;;;;24.40;49.06;97099.69;6277332;22;20020;-76
2023/07/10 05:46:33;;;;;;;7.80;4.28;;;;;;;24.44;48.70;97098.09;6277129;22;20019;-77
2023/07/10 05:49:01;;;;;;;8.38;4.82;;;;;;;24.48;49.21;97088.56;6276687;22;20023;-79
2023/07/10 05:51:29;;;;;;;6.65;4.35;;;;;;;24.51;49.14;97092.56;6276819;22;20468;-80
2023/07/10 05:53:58;;;;;;;10.68;4.88;;;;;;;24.55;49.25;97093.66;6285789;22;20020;-78
2023/07/10 05:56:25;;;;;;;9.45;4.57;;;;;;;24.59;49.00;97095.53;6292677;22;20030;-78
2023/07/10 05:58:53;;;;;;;6.82;4.28;;;;;;;24.61;49.17;97088.09;6283010;22;20023;-79
2023/07/10 06:01:20;;;;;;;7.18;4.20;;;;;;;24.63;49.14;97101.97;6278685;22;20027;-78
2023/07/10 06:03:48;;;;;;;8.43;4.40;;;;;;;24.65;49.43;97105.19;6280138;22;20026;-78
2023/07/10 06:06:16;;;;;;;6.40;4.28;;;;;;;24.68;49.15;97119.88;6277970;22;20024;-79
2023/07/10 06:08:44;;;;;;;7.70;4.07;;;;;;;24.71;49.35;97129.22;6277735;22;20077;-78
2023/07/10 06:11:13;;;;;;;7.85;5.00;;;;;;;24.74;49.27;97128.69;6277299;22;20020;-78
2023/07/10 06:13:40;;;;;;;9.93;4.45;;;;;;;24.76;49.65;97121.25;6277474;22;20050;-78
2023/07/10 06:16:10;;;;;;;8.77;4.38;;;;;;;24.79;49.77;97110.84;6277164;22;20023;-79
2023/07/10 06:18:39;;;;;;;6.50;4.82;;;;;;;24.83;49.73;97116.47;6277127;22;20501;-78
2023/07/10 06:21:07;;;;;;;7.30;4.65;;;;;;;24.89;49.70;97110.09;6277849;22;20043;-78
2023/07/10 06:23:35;;;;;;;6.70;4.40;;;;;;;24.97;49.60;97117.59;6277476;22;20047;-78
2023/07/10 06:26:04;;;;;;;9.18;4.65;;;;;;;25.00;49.17;97114.41;6277356;22;20353;-78
2023/07/10 06:28:34;;;;;;;9.70;4.78;;;;;;;25.05;49.20;97126.94;6277226;22;20020;-79
2023/07/10 06:31:04;;;;;;;6.50;4.57;;;;;;;25.07;49.32;97128.28;6277727;22;20450;-78
2023/07/10 06:33:32;;;;;;;6.05;4.53;;;;;;;25.11;49.23;97128.59;6278282;22;20471;-78
2023/07/10 06:36:01;;;;;;;5.63;4.03;;;;;;;25.15;49.31;97136.88;6277626;22;20023;-79
2023/07/10 06:38:29;;;;;;;7.32;4.70;;;;;;;25.19;49.21;97136.13;6276744;22;20023;-78
2023/07/10 06:40:56;;;;;;;11.38;4.50;;;;;;;25.23;49.42;97133.72;6276265;22;20049;-78
2023/07/10 06:43:24;;;;;;;12.70;4.95;;;;;;;25.28;49.43;97131.06;6277118;22;20101;-78
2023/07/10 06:45:55;;;;;;;8.77;4.97;;;;;;;25.33;49.62;97139.09;6277227;22;20054;-79
2023/07/10 06:48:23;;;;;;;9.73;5.30;;;;;;;25.41;49.59;97143.13;6276068;22;20023;-79
2023/07/10 06:50:51;;;;;;;8.43;4.97;;;;;;;25.45;49.50;97122.81;6276398;22;20090;-78
2023/07/10 06:53:19;;;;;;;7.57;4.70;;;;;;;25.53;49.49;97113.50;6276295;22;20027;-79
2023/07/10 06:55:53;;;;;;;8.55;4.43;;;;;;;25.59;49.39;97101.75;6276377;22;20031;-78
2023/07/10 06:58:20;;;;;;;10.75;4.95;;;;;;;25.65;49.38;97084.66;6276324;22;20074;-78
2023/07/10 07:00:48;;;;;;;9.98;5.38;;;;;;;25.74;49.38;97083.03;6275810;22;20050;-79
2023/07/10 07:03:17;;;;;;;8.20;4.70;;;;;;;25.82;49.68;97071.84;6276098;22;20024;-79
2023/07/10 07:05:45;;;;;;;7.28;4.80;;;;;;;25.92;49.32;97070.25;6276038;22;20058;-78
2023/07/10 07:08:13;;;;;;;9.52;4.65;;;;;;;26.01;49.20;97072.09;6275759;22;20030;-79
2023/07/10 07:10:42;;;;;;;6.93;4.85;;;;;;;26.11;48.71;97081.97;6275189;22;20034;-78
2023/07/10 07:13:10;;;;;;;7.38;4.78;;;;;;;26.19;48.43;97089.44;6275703;22;20058;-79
2023/07/10 07:15:37;;;;;;;8.15;4.50;;;;;;;26.25;48.32;97109.75;6275610;22;20016;-78
2023/07/10 07:18:05;;;;;;;6.93;4.18;;;;;;;26.31;48.37;97110.56;6275585;22;20031;-78
2023/07/10 07:20:34;;;;;;;7.97;5.22;;;;;;;26.39;48.09;97107.34;6275396;22;20085;-79
2023/07/10 07:23:02;;;;;;;7.15;4.40;;;;;;;26.45;48.31;97111.59;6275611;22;20081;-79
2023/07/10 07:25:30;;;;;;;9.23;5.55;;;;;;;26.52;48.14;97124.66;6275855;22;20019;-78
2023/07/10 07:27:59;;;;;;;7.63;4.82;;;;;;;26.59;48.00;97130.59;6275134;22;20019;-79
2023/07/10 07:30:28;;;;;;;6.20;4.90;;;;;;;26.67;47.59;97138.03;6274999;22;20030;-78
2023/07/10 07:32:57;;;;;;;5.82;4.82;;;;;;;26.75;47.39;97135.91;6275551;22;20319;-79
2023/07/10 07:35:24;;;;;;;8.20;5.13;;;;;;;26.82;47.47;97125.69;6275035;22;20457;-79
2023/07/10 07:37:53;;;;;;;6.88;4.90;;;;;;;26.89;47.56;97134.22;6275438;22;20028;-79
2023/07/10 07:40:21;;;;;;;7.22;5.30;;;;;;;26.95;47.24;97133.13;6274796;22;20403;-79
2023/07/10 07:42:49;;;;;;;7.40;4.88;;;;;;;27.00;46.82;97138.44;6275612;22;20023;-79
2023/07/10 07:45:16;;;;;;;6.88;4.53;;;;;;;27.05;46.73;97127.75;6275221;22;20020;-78
2023/07/10 07:47:44;;;;;;;8.88;5.10;;;;;;;27.12;46.72;97122.09;6275055;22;20055;-79
2023/07/10 07:50:12;;;;;;;8.02;5.45;;;;;;;27.19;46.92;97135.16;6275177;22;20369;-79
2023/07/10 07:52:40;;;;;;;6.15;4.40;;;;;;;27.28;47.03;97141.56;6275401;22;20103;-79
2023/07/10 07:55:09;;;;;;;8.27;5.10;;;;;;;27.34;46.71;97140.47;6275361;22;20093;-79
2023/07/10 07:57:38;;;;;;;6.47;4.60;;;;;;;27.39;46.74;97126.25;6275165;22;20085;-78
2023/07/10 08:00:08;;;;;;;6.97;4.22;;;;;;;27.44;46.37;97113.63;6274545;22;20034;-79
2023/07/10 08:02:35;;;;;;;8.45;4.82;;;;;;;27.51;46.19;97108.75;6275345;22;20059;-78
2023/07/10 08:05:03;;;;;;;5.60;4.32;;;;;;;27.59;46.40;97109.22;6275312;22;20103;-79
2023/07/10 08:07:43;;;;;;;7.10;4.57;;;;;;;27.67;45.86;97100.59;6275174;22;20031;-79
2023/07/10 08:10:12;;;;;;;7.07;4.30;;;;;;;27.77;45.67;97100.53;6274922;22;20099;-80
2023/07/10 08:12:39;;;;;;;7.07;4.50;;;;;;;27.86;45.92;97106.91;6275319;22;20023;-79
2023/07/10 08:15:07;;;;;;;6.72;4.53;;;;;;;27.98;46.13;97108.44;6274734;22;20069;-80
2023/07/10 08:17:35;;;;;;;6.30;4.50;;;;;;;28.08;45.50;97111.03;6275315;22;20081;-79
2023/07/10 08:20:03;;;;;;;11.38;4.40;;;;;;;28.17;45.27;97114.69;6274802;22;20030;-80
2023/07/10 08:22:30;;;;;;;7.82;4.70;;;;;;;28.25;44.91;97122.13;6275090;22;20024;-80
2023/07/10 08:24:58;;;;;;;7.30;4.55;;;;;;;28.29;45.05;97116.97;6275179;22;20386;-79
2023/07/10 08:27:27;;;;;;;5.72;4.05;;;;;;;28.33;45.06;97123.38;6274718;22;20472;-79
2023/07/10 08:29:54;;;;;;;5.43;3.97;;;;;;;28.40;44.72;97123.06;6274663;22;20019;-79
2023/07/10 08:32:23;;;;;;;8.57;4.57;;;;;;;28.48;44.95;97119.78;6275000;22;20019;-79
2023/07/10 08:34:50;;;;;;;6.20;4.30;;;;;;;28.57;44.05;97122.66;6275403;22;20020;-79
2023/07/10 08:37:18;;;;;;;7.63;4.88;;;;;;;28.60;43.80;97122.88;6275214;22;20023;-79
2023/07/10 08:39:47;;;;;;;5.80;4.20;;;;;;;28.66;43.70;97127.09;6275171;22;20031;-79
2023/07/10 08:42:19;;;;;;;5.97;4.50;;;;;;;28.70;43.33;97125.44;6275254;22;20024;-79
2023/07/10 08:44:51;;;;;;;5.82;4.15;;;;;;;28.75;43.88;97135.31;6274700;22;20095;-79
2023/07/10 08:47:24;;;;;;;;;;;;;;;28.79;43.45;97135.53;6275511;22;20342;-80
2023/07/10 08:49:54;;;;;;;5.32;4.43;;;;;;;28.85;43.53;97131.72;6274344;22;19915;-79
2023/07/10 08:52:34;;;;;;;6.53;4.38;;;;;;;28.90;43.71;97137.81;6275121;22;20030;-78
2023/07/10 08:55:02;;;;;;;7.25;4.13;;;;;;;28.97;43.50;97134.78;6274293;22;20015;-78
2023/07/10 08:57:34;;;;;;;8.70;4.45;;;;;;;29.04;43.33;97137.09;6274551;22;20078;-78
2023/07/10 09:00:07;;;;;;;5.97;3.88;;;;;;;29.10;43.30;97126.06;6274701;22;20023;-78
2023/07/10 09:02:40;;;;;;;5.82;4.43;;;;;;;29.20;43.06;97135.06;6274461;22;20414;-78
2023/07/10 09:05:12;;;;;;;5.95;4.28;;;;;;;29.27;42.82;97140.88;6276816;22;20023;-78
2023/07/10 09:07:42;;;;;;;5.28;4.30;;;;;;;29.31;42.84;97142.69;6276978;22;20028;-78
2023/07/10 09:10:16;;;;;;;8.18;4.57;;;;;;;29.37;42.85;97140.75;6276619;22;20019;-78
2023/07/10 09:12:48;;;;;;;8.43;4.57;;;;;;;29.44;42.68;97143.88;6276902;22;20102;-77
2023/07/10 09:15:21;;;;;;;9.07;4.70;;;;;;;29.48;42.28;97136.03;6276700;22;20385;-78
2023/07/10 09:17:58;;;;;;;7.15;4.18;;;;;;;29.49;42.58;97141.09;6276719;22;20020;-78
2023/07/10 09:20:26;;;;;;;6.57;4.30;;;;;;;29.53;42.08;97142.13;6276417;22;20098;-78
2023/07/10 09:22:57;;;;;;;6.68;4.25;;;;;;;29.57;42.01;97135.06;6276216;22;20534;-78
2023/07/10 09:25:25;;;;;;;4.70;4.22;;;;;;;29.63;42.10;97135.00;6276508;22;20069;-78
2023/07/10 09:27:54;;;;;;;7.40;3.88;;;;;;;29.69;42.17;97136.53;6276224;22;20073;-78
2023/07/10 09:30:33;;;;;;;7.68;4.50;;;;;;;29.77;41.97;97143.97;6276134;22;20043;-78
2023/07/10 09:33:02;;;;;;;6.57;4.60;;;;;;;29.86;41.56;97141.41;6276389;22;20476;-78
2023/07/10 09:35:30;;;;;;;9.73;4.70;;;;;;;29.89;41.45;97147.00;6276060;22;20473;-78
2023/07/10 09:37:57;;;;;;;7.60;4.43;;;;;;;29.90;41.23;97145.91;6276534;22;20023;-78
2023/07/10 09:40:37;;;;;;;6.13;4.55;;;;;;;29.88;41.28;97140.00;6275808;22;20042;-78
2023/07/10 09:43:12;;;;;;;6.60;4.43;;;;;;;29.86;40.99;97139.50;6276474;22;20099;-78
2023/07/10 09:45:44;;;;;;;6.95;4.50;;;;;;;29.87;41.17;97153.75;6276173;22;20019;-78
2023/07/10 09:48:19;;;;;;;6.10;4.43;;;;;;;29.87;41.13;97145.69;6276175;22;20062;-78
2023/07/10 09:50:50;;;;;;;5.55;4.25;;;;;;;29.90;41.27;97150.47;6276188;22;20413;-78
2023/07/10 09:53:30;;;;;;;11.73;4.50;;;;;;;29.92;41.20;97149.09;6276453;22;20030;-78
2023/07/10 09:55:58;;;;;;;8.60;4.75;;;;;;;29.90;41.59;97151.28;6276237;22;20336;-78
2023/07/10 09:58:26;;;;;;;6.30;4.88;;;;;;;29.90;41.46;97153.97;6276122;22;20024;-78
2023/07/10 10:01:00;;;;;;;5.85;4.85;;;;;;;29.93;41.31;97145.31;6276039;22;20047;-78
2023/07/10 10:03:33;;;;;;;8.27;5.03;;;;;;;29.92;41.33;97143.72;6275951;22;20019;-78
2023/07/10 10:06:02;;;;;;;7.13;4.53;;;;;;;29.92;41.33;97146.41;6276289;22;20022;-77
2023/07/10 10:08:34;;;;;;;7.40;4.65;;;;;;;29.90;41.52;97137.84;6276469;22;20024;-78
2023/07/10 10:11:04;;;;;;;4.97;4.13;;;;;;;29.88;41.81;97142.69;6275893;22;20024;-78
2023/07/10 10:13:37;;;;;;;5.05;4.25;;;;;;;29.83;41.91;97142.00;6275718;22;20094;-78
2023/07/10 10:16:12;;;;;;;7.45;4.38;;;;;;;29.83;42.03;97132.03;6275499;22;20019;-78
2023/07/10 10:18:45;;;;;;;4.78;3.78;;;;;;;29.84;42.00;97144.38;6275838;22;20098;-78
2023/07/10 10:21:16;;;;;;;5.80;3.78;;;;;;;29.83;41.80;97136.63;6275747;22;20016;-78
2023/07/10 10:23:46;;;;;;;4.93;3.70;;;;;;;29.88;41.92;97126.56;6276237;22;20123;-78
2023/07/10 10:26:27;;;;;;;5.13;3.97;;;;;;;29.94;41.82;97133.47;6275769;22;20078;-78
2023/07/10 10:29:07;;;;;;;5.90;3.70;;;;;;;29.97;41.54;97134.75;6275598;22;20043;-78
2023/07/10 10:31:40;;;;;;;6.70;4.10;;;;;;;29.96;41.18;97130.50;6275303;22;20028;-78
2023/07/10 10:34:20;;;;;;;4.18;3.50;;;;;;;29.98;40.79;97131.78;6276020;22;20103;-78
2023/07/10 10:36:59;;;;;;;7.03;3.70;;;;;;;30.04;40.84;97127.09;6275971;22;20449;-78
2023/07/10 10:39:37;;;;;;;8.85;4.22;;;;;;;30.11;40.99;97124.03;6275481;22;20039;-78
2023/07/10 10:42:12;;;;;;;4.97;3.75;;;;;;;30.17;41.39;97130.94;6275867;22;20031;-78
2023/07/10 10:44:49;;;;;;;4.82;3.03;;;;;;;30.25;40.72;97124.88;6275561;22;20481;-78
2023/07/10 10:47:32;;;;;;;5.35;3.67;;;;;;;30.32;40.69;97128.00;6275641;22;20114;-78
2023/07/10 10:50:15;;;;;;;8.65;4.00;;;;;;;30.37;40.52;97119.84;6275247;22;20098;-78
2023/07/10 10:52:51;;;;;;;7.07;4.32;;;;;;;30.41;40.45;97125.41;6275452;22;20055;-78
2023/07/10 10:55:30;;;;;;;5.47;3.67;;;;;;;30.45;40.80;97131.00;6275800;22;20082;-78
2023/07/10 10:58:12;;;;;;;5.65;3.85;;;;;;;30.48;40.73;97116.94;6275414;22;20113;-78
2023/07/10 11:00:47;;;;;;;;;;;;;;;30.48;40.84;97123.16;6275785;22;20106;-79
2023/07/10 11:03:24;;;;;;;7.60;4.03;;;;;;;30.49;40.71;97121.25;6275548;22;20123;-78
2023/07/10 11:05:57;;;;;;;5.95;3.65;;;;;;;30.49;40.85;97126.63;6274410;22;20020;-77
2023/07/10 11:08:29;;;;;;;5.95;3.67;;;;;;;30.50;40.51;97129.03;6275438;22;20015;-78
2023/07/10 11:10:58;;;;;;;5.35;4.03;;;;;;;30.45;40.60;97121.03;6275264;22;20094;-78
2023/07/10 11:13:31;;;;;;;3.95;3.30;;;;;;;30.43;40.45;97122.44;6275501;22;20106;-78
2023/07/10 11:16:00;;;;;;;5.05;3.35;;;;;;;30.42;40.62;97120.84;6275606;22;20026;-78
2023/07/10 11:18:30;;;;;;;7.07;3.90;;;;;;;30.45;40.64;97114.88;6275432;22;20045;-78
2023/07/10 11:21:01;;;;;;;5.93;3.63;;;;;;;30.49;40.74;97116.66;6275262;22;20403;-78
2023/07/10 11:23:33;;;;;;;6.78;3.65;;;;;;;30.53;40.64;97111.50;6275607;22;20020;-78
2023/07/10 11:26:04;;;;;;;4.35;3.40;;;;;;;30.55;40.71;97109.28;6274906;22;20023;-78
2023/07/10 11:28:33;;;;;;;3.33;3.07;;;;;;;30.55;40.70;97109.28;6275529;22;20020;-78
2023/07/10 11:31:28;;;;;;;5.32;4.07;;;;;;;30.58;40.62;97100.59;6275164;22;20264;-78
2023/07/10 11:34:48;;;;;;;4.28;3.70;;;;;;;30.67;40.54;97095.31;6275361;22;20019;-78
2023/07/10 11:37:36;;;;;;;5.03;4.05;;;;;;;30.69;40.05;97093.91;6275061;22;20019;-78
2023/07/10 11:40:40;;;;;;;4.78;3.55;;;;;;;30.72;40.50;97082.56;6274544;22;20019;-78
2023/07/10 11:43:58;;;;;;;6.38;4.20;;;;;;;30.80;39.81;97103.38;6229601;22;20024;-78
2023/07/10 11:46:29;;;;;;;5.22;4.00;;;;;;;30.83;39.54;97091.25;6274840;22;20016;-78
2023/07/10 11:49:05;;;;;;;7.97;3.80;;;;;;;30.86;39.50;97096.03;6274790;22;20474;-78